createdAt,value
2018-12-01T00:00:16.976Z,100481.25
2018-12-01T00:02:44.691Z,100482.23
2018-12-01T00:05:12.439Z,100488.38
2018-12-01T00:07:40.093Z,100488.84
2018-12-01T00:10:07.795Z,100481.61
2018-12-01T00:12:35.509Z,100476.70
2018-12-01T00:15:03.532Z,100477.75
2018-12-01T00:17:31.235Z,100474.72
2018-12-01T00:19:58.962Z,100477.67
2018-12-01T00:22:26.598Z,100471.48
2018-12-01T00:24:54.236Z,100472.92
2018-12-01T00:27:21.969Z,100471.48
2018-12-01T00:29:49.675Z,100475.98
2018-12-01T00:32:17.344Z,100474.17
2018-12-01T00:34:45.122Z,100474.09
2018-12-01T00:37:12.807Z,100475.64
2018-12-01T00:39:40.527Z,100477.95
2018-12-01T00:42:08.227Z,100479.72
2018-12-01T00:44:35.929Z,100479.11
2018-12-01T00:47:03.636Z,100483.39
2018-12-01T00:49:31.408Z,100490.05
2018-12-01T00:51:59.168Z,100493.81
2018-12-01T00:54:26.864Z,100496.37
2018-12-01T00:56:54.555Z,100497.30
2018-12-01T00:59:22.311Z,100501.06
2018-12-01T01:01:50.025Z,100500.94
2018-12-01T01:04:17.719Z,100494.28
2018-12-01T01:06:45.563Z,100508.09
2018-12-01T01:09:13.220Z,100501.91
2018-12-01T01:11:40.987Z,100500.66
2018-12-01T01:14:09.311Z,100501.91
2018-12-01T01:16:37.064Z,100501.50
2018-12-01T01:19:05.083Z,100500.58
2018-12-01T01:21:32.740Z,100504.54
2018-12-01T01:24:00.461Z,100501.50
2018-12-01T01:26:28.168Z,100503.50
2018-12-01T01:28:55.955Z,100502.98
2018-12-01T01:31:23.639Z,100503.38
2018-12-01T01:33:51.318Z,100507.27
2018-12-01T01:36:18.984Z,100510.61
2018-12-01T01:38:46.747Z,100516.97
2018-12-01T01:41:14.385Z,100517.80
2018-12-01T01:43:42.120Z,100513.02
2018-12-01T01:46:09.863Z,100518.02
2018-12-01T01:48:37.667Z,100521.88
2018-12-01T01:51:05.601Z,100517.09
2018-12-01T01:53:33.314Z,100516.27
2018-12-01T01:56:01.093Z,100520.86
2018-12-01T01:58:32.640Z,100514.91
2018-12-01T02:01:00.413Z,100508.94
2018-12-01T02:03:28.131Z,100512.49
2018-12-01T02:05:55.844Z,100509.13
2018-12-01T02:08:23.544Z,100509.98
2018-12-01T02:10:51.269Z,100509.23
2018-12-01T02:13:18.947Z,100505.68
2018-12-01T02:15:46.659Z,100505.48
2018-12-01T02:18:14.475Z,100507.67
2018-12-01T02:20:42.227Z,100508.92
2018-12-01T02:23:09.908Z,100506.53
2018-12-01T02:25:37.627Z,100508.80
2018-12-01T02:28:05.608Z,100506.11
2018-12-01T02:30:33.375Z,100501.94
2018-12-01T02:33:01.173Z,100498.31
2018-12-01T02:35:29.539Z,100499.03
2018-12-01T02:37:57.325Z,100490.25
2018-12-01T02:40:27.035Z,100493.28
2018-12-01T02:42:55.016Z,100495.69
2018-12-01T02:45:40.132Z,100491.19
2018-12-01T02:48:07.831Z,100489.22
2018-12-01T02:50:35.615Z,100489.66
2018-12-01T02:53:03.395Z,100488.07
2018-12-01T02:55:31.138Z,100489.23
2018-12-01T02:57:58.791Z,100484.20
2018-12-01T03:00:26.491Z,100476.38
2018-12-01T03:02:54.207Z,100478.04
2018-12-01T03:05:22.599Z,100484.83
2018-12-01T03:07:51.063Z,100485.14
2018-12-01T03:10:19.912Z,100484.41
2018-12-01T03:12:47.803Z,100477.83
2018-12-01T03:15:16.676Z,100480.02
2018-12-01T03:17:44.627Z,100487.46
2018-12-01T03:20:14.421Z,100482.11
2018-12-01T03:22:42.211Z,100485.88
2018-12-01T03:25:16.178Z,100487.64
2018-12-01T03:27:43.947Z,100489.53
2018-12-01T03:30:11.713Z,100486.50
2018-12-01T03:32:39.420Z,100487.02
2018-12-01T03:35:11.395Z,100483.16
2018-12-01T03:37:41.855Z,100481.37
2018-12-01T03:40:10.304Z,100490.67
2018-12-01T03:42:38.079Z,100487.95
2018-12-01T03:45:08.336Z,100496.45
2018-12-01T03:47:36.069Z,100496.44
2018-12-01T03:50:05.331Z,100493.20
2018-12-01T03:52:33.003Z,100502.19
2018-12-01T03:55:00.695Z,100502.49
2018-12-01T03:57:28.400Z,100503.33
2018-12-01T03:59:56.061Z,100499.77
2018-12-01T04:02:23.803Z,100503.65
2018-12-01T04:04:51.488Z,100513.38
2018-12-01T04:07:19.155Z,100510.14
2018-12-01T04:09:46.828Z,100522.05
2018-12-01T04:12:14.596Z,100513.81
2018-12-01T04:14:42.317Z,100517.98
2018-12-01T04:17:10.063Z,100519.73
2018-12-01T04:19:37.769Z,100519.64
2018-12-01T04:22:05.766Z,100517.02
2018-12-01T04:24:33.559Z,100515.17
2018-12-01T04:27:04.649Z,100522.45
2018-12-01T04:29:32.395Z,100519.64
2018-12-01T04:32:00.079Z,100517.55
2018-12-01T04:34:27.799Z,100521.84
2018-12-01T04:36:55.515Z,100525.60
2018-12-01T04:39:23.283Z,100518.37
2018-12-01T04:41:50.935Z,100514.64
2018-12-01T04:44:18.655Z,100525.51
2018-12-01T04:46:46.372Z,100520.78
2018-12-01T04:49:14.015Z,100522.05
2018-12-01T04:51:41.811Z,100520.08
2018-12-01T04:54:09.538Z,100519.86
2018-12-01T04:56:37.247Z,100519.33
2018-12-01T04:59:05.047Z,100528.84
2018-12-01T05:01:32.691Z,100529.37
2018-12-01T05:04:00.347Z,100530.51
2018-12-01T05:06:28.043Z,100535.94
2018-12-01T05:08:55.751Z,100540.02
2018-12-01T05:11:23.442Z,100547.64
2018-12-01T05:13:51.155Z,100536.03
2018-12-01T05:16:18.932Z,100543.04
2018-12-01T05:18:46.691Z,100539.40
2018-12-01T05:21:14.354Z,100542.42
2018-12-01T05:23:42.060Z,100541.16
2018-12-01T05:26:09.771Z,100547.33
2018-12-01T05:28:37.495Z,100544.52
2018-12-01T05:31:05.163Z,100540.84
2018-12-01T05:33:32.879Z,100552.45
2018-12-01T05:36:00.591Z,100551.50
2018-12-01T05:38:28.295Z,100558.41
2018-12-01T05:40:55.979Z,100560.08
2018-12-01T05:43:23.671Z,100566.96
2018-12-01T05:45:51.381Z,100563.53
2018-12-01T05:48:19.015Z,100570.20
2018-12-01T05:50:46.659Z,100565.39
2018-12-01T05:53:14.407Z,100567.61
2018-12-01T05:55:42.100Z,100570.20
2018-12-01T05:58:09.734Z,100567.39
2018-12-01T06:00:37.471Z,100574.06
2018-12-01T06:03:06.267Z,100574.06
2018-12-01T06:05:33.995Z,100563.41
2018-12-01T06:08:01.701Z,100568.53
2018-12-01T06:10:29.323Z,100565.73
2018-12-01T06:13:02.226Z,100568.97
2018-12-01T06:15:30.109Z,100565.81
2018-12-01T06:17:57.850Z,100570.41
2018-12-01T06:20:25.595Z,100571.77
2018-12-01T06:22:53.367Z,100580.23
2018-12-01T06:25:22.716Z,100573.88
2018-12-01T06:27:50.447Z,100579.19
2018-12-01T06:30:19.191Z,100577.73
2018-12-01T06:32:48.408Z,100578.25
2018-12-01T06:35:16.091Z,100584.09
2018-12-01T06:37:43.841Z,100579.08
2018-12-01T06:40:13.423Z,100581.16
2018-12-01T06:42:41.091Z,100586.28
2018-12-01T06:45:11.584Z,100583.99
2018-12-01T06:47:39.359Z,100585.14
2018-12-01T06:50:10.323Z,100579.31
2018-12-01T06:52:38.090Z,100584.41
2018-12-01T06:55:07.874Z,100582.64
2018-12-01T06:57:35.507Z,100585.36
2018-12-01T07:00:05.707Z,100590.48
2018-12-01T07:02:33.395Z,100593.20
2018-12-01T07:05:01.104Z,100587.77
2018-12-01T07:07:28.799Z,100589.13
2018-12-01T07:09:56.492Z,100585.77
2018-12-01T07:12:24.147Z,100588.39
2018-12-01T07:14:51.915Z,100593.83
2018-12-01T07:17:19.583Z,100600.92
2018-12-01T07:19:47.271Z,100606.48
2018-12-01T07:22:14.971Z,100601.14
2018-12-01T07:24:42.663Z,100604.08
2018-12-01T07:27:10.404Z,100597.90
2018-12-01T07:29:38.126Z,100609.61
2018-12-01T07:32:05.795Z,100600.92
2018-12-01T07:34:33.468Z,100598.86
2018-12-01T07:37:01.176Z,100595.70
2018-12-01T07:39:28.883Z,100588.60
2018-12-01T07:41:56.548Z,100589.13
2018-12-01T07:44:24.231Z,100585.05
2018-12-01T07:46:51.967Z,100584.30
2018-12-01T07:49:19.731Z,100587.85
2018-12-01T07:51:47.423Z,100582.63
2018-12-01T07:54:15.130Z,100582.10
2018-12-01T07:56:42.855Z,100575.83
2018-12-01T07:59:14.404Z,100575.30
2018-12-01T08:01:42.150Z,100583.44
2018-12-01T08:04:09.840Z,100580.20
2018-12-01T08:06:37.571Z,100580.59
2018-12-01T08:09:07.163Z,100583.12
2018-12-01T08:11:34.859Z,100578.73
2018-12-01T08:14:02.631Z,100576.95
2018-12-01T08:16:30.643Z,100572.85
2018-12-01T08:18:58.391Z,100574.11
2018-12-01T08:21:26.123Z,100576.61
2018-12-01T08:23:53.835Z,100568.13
2018-12-01T08:26:21.654Z,100569.67
2018-12-01T08:28:49.375Z,100565.41
2018-12-01T08:31:17.043Z,100562.97
2018-12-01T08:33:44.723Z,100574.91
2018-12-01T08:36:12.460Z,100582.83
2018-12-01T08:38:40.215Z,100577.91
2018-12-01T08:41:07.931Z,100573.59
2018-12-01T08:43:35.639Z,100572.75
2018-12-01T08:46:03.322Z,100573.11
2018-12-01T08:48:31.039Z,100580.00
2018-12-01T08:50:58.755Z,100575.09
2018-12-01T08:53:26.421Z,100577.67
2018-12-01T08:55:54.301Z,100578.50
2018-12-01T08:58:22.041Z,100577.64
2018-12-01T09:00:49.819Z,100579.61
2018-12-01T09:03:22.157Z,100583.96
2018-12-01T09:05:50.487Z,100586.84
2018-12-01T09:08:18.159Z,100593.49
2018-12-01T09:10:45.908Z,100600.53
2018-12-01T09:13:13.603Z,100601.02
2018-12-01T09:15:41.380Z,100593.00
2018-12-01T09:18:09.099Z,100593.27
2018-12-01T09:20:36.808Z,100595.73
2018-12-01T09:23:05.010Z,100595.73
2018-12-01T09:25:37.060Z,100597.99
2018-12-01T09:28:06.611Z,100594.59
2018-12-01T09:30:35.904Z,100586.04
2018-12-01T09:33:04.220Z,100593.64
2018-12-01T09:35:31.883Z,100589.10
2018-12-01T09:37:59.583Z,100581.19
2018-12-01T09:40:27.343Z,100580.23
2018-12-01T09:42:55.083Z,100583.59
2018-12-01T09:45:24.285Z,100579.59
2018-12-01T09:47:55.171Z,100574.31
2018-12-01T09:50:22.895Z,100576.58
2018-12-01T09:52:52.427Z,100572.83
2018-12-01T09:55:22.734Z,100580.25
2018-12-01T09:57:50.527Z,100581.73
2018-12-01T10:00:20.537Z,100584.23
2018-12-01T10:02:48.315Z,100584.22
2018-12-01T10:05:17.644Z,100584.83
2018-12-01T10:07:45.479Z,100583.47
2018-12-01T10:10:15.831Z,100580.47
2018-12-01T10:12:45.415Z,100579.00
2018-12-01T10:15:16.721Z,100585.16
2018-12-01T10:17:44.433Z,100583.27
2018-12-01T10:20:15.272Z,100573.65
2018-12-01T10:22:42.958Z,100565.92
2018-12-01T10:25:13.292Z,100559.41
2018-12-01T10:27:40.995Z,100561.07
2018-12-01T10:30:16.376Z,100561.13
2018-12-01T10:32:44.171Z,100557.65
2018-12-01T10:35:16.455Z,100563.80
2018-12-01T10:37:49.446Z,100560.00
2018-12-01T10:40:17.136Z,100561.60
2018-12-01T10:42:44.816Z,100561.77
2018-12-01T10:45:15.943Z,100559.86
2018-12-01T10:47:44.514Z,100556.00
2018-12-01T10:50:16.854Z,100544.61
2018-12-01T10:52:46.579Z,100553.66
2018-12-01T10:55:29.722Z,100554.02
2018-12-01T10:58:02.422Z,100551.58
2018-12-01T11:00:36.436Z,100555.60
2018-12-01T11:03:05.771Z,100562.09
2018-12-01T11:05:35.205Z,100555.13
2018-12-01T11:08:05.023Z,100546.34
2018-12-01T11:10:32.759Z,100548.36
2018-12-01T11:13:00.384Z,100539.66
2018-12-01T11:15:28.161Z,100535.33
2018-12-01T11:17:55.898Z,100534.03
2018-12-01T11:20:23.583Z,100526.13
2018-12-01T11:22:51.396Z,100518.47
2018-12-01T11:25:19.197Z,100509.06
2018-12-01T11:27:47.004Z,100515.56
2018-12-01T11:30:16.368Z,100508.44
2018-12-01T11:32:44.354Z,100506.97
2018-12-01T11:35:12.124Z,100495.80
2018-12-01T11:37:39.891Z,100486.28
2018-12-01T11:40:12.224Z,100478.81
2018-12-01T11:42:39.964Z,100480.36
2018-12-01T11:45:10.651Z,100473.53
2018-12-01T11:47:38.371Z,100472.34
2018-12-01T11:50:14.599Z,100477.36
2018-12-01T11:52:42.464Z,100470.02
2018-12-01T11:55:12.915Z,100471.75
2018-12-01T11:57:40.651Z,100464.13
2018-12-01T12:00:15.362Z,100465.62
2018-12-01T12:02:43.339Z,100468.12
2018-12-01T12:05:12.619Z,100463.72
2018-12-01T12:08:43.580Z,100461.58
2018-12-01T12:11:11.321Z,100456.19
2018-12-01T12:13:39.059Z,100454.28
2018-12-01T12:16:06.759Z,100458.92
2018-12-01T12:18:34.504Z,100452.62
2018-12-01T12:21:02.292Z,100452.62
2018-12-01T12:23:29.992Z,100444.34
2018-12-01T12:25:57.754Z,100447.12
2018-12-01T12:28:25.503Z,100445.34
2018-12-01T12:30:53.279Z,100444.99
2018-12-01T12:33:21.028Z,100440.64
2018-12-01T12:35:48.767Z,100442.83
2018-12-01T12:38:16.455Z,100443.98
2018-12-01T12:40:44.198Z,100436.20
2018-12-01T12:43:11.815Z,100438.18
2018-12-01T12:45:39.559Z,100430.53
2018-12-01T12:48:08.314Z,100425.52
2018-12-01T12:50:36.019Z,100413.01
2018-12-01T12:53:03.829Z,100415.50
2018-12-01T12:55:31.619Z,100409.63
2018-12-01T12:57:59.353Z,100408.50
2018-12-01T13:00:28.091Z,100406.55
2018-12-01T13:03:01.472Z,100409.45
2018-12-01T13:05:33.213Z,100405.45
2018-12-01T13:08:00.906Z,100402.25
2018-12-01T13:10:28.710Z,100397.72
2018-12-01T13:12:56.386Z,100399.95
2018-12-01T13:15:24.155Z,100386.61
2018-12-01T13:17:51.856Z,100392.31
2018-12-01T13:20:21.162Z,100387.50
2018-12-01T13:22:52.915Z,100388.82
2018-12-01T13:25:20.639Z,100385.89
2018-12-01T13:27:51.104Z,100379.66
2018-12-01T13:30:22.118Z,100385.93
2018-12-01T13:32:49.919Z,100376.21
2018-12-01T13:35:17.787Z,100374.18
2018-12-01T13:37:45.731Z,100368.29
2018-12-01T13:40:14.939Z,100360.18
2018-12-01T13:42:43.728Z,100369.41
2018-12-01T13:45:13.114Z,100366.49
2018-12-01T13:47:41.053Z,100372.33
2018-12-01T13:50:13.482Z,100374.12
2018-12-01T13:52:42.384Z,100370.73
2018-12-01T13:55:10.392Z,100373.80
2018-12-01T13:57:38.099Z,100371.31
2018-12-01T14:00:12.055Z,100373.13
2018-12-01T14:02:39.907Z,100362.50
2018-12-01T14:05:09.677Z,100363.97
2018-12-01T14:07:37.391Z,100366.16
2018-12-01T14:10:11.543Z,100370.11
2018-12-01T14:12:39.625Z,100369.22
2018-12-01T14:15:12.682Z,100366.41
2018-12-01T14:17:40.595Z,100366.70
2018-12-01T14:20:10.495Z,100365.52
2018-12-01T14:22:38.228Z,100360.70
2018-12-01T14:25:08.861Z,100376.34
2018-12-01T14:27:37.030Z,100369.04
2018-12-01T14:30:09.109Z,100366.21
2018-12-01T14:32:37.047Z,100363.19
2018-12-01T14:35:13.622Z,100364.11
2018-12-01T14:37:41.835Z,100363.42
2018-12-01T14:40:11.409Z,100361.47
2018-12-01T14:42:39.440Z,100370.88
2018-12-01T14:45:10.217Z,100362.98
2018-12-01T14:47:42.632Z,100359.37
2018-12-01T14:50:11.803Z,100357.47
2018-12-01T14:52:40.135Z,100357.70
2018-12-01T14:55:11.555Z,100361.17
2018-12-01T14:57:39.227Z,100359.81
2018-12-01T15:00:23.520Z,100355.31
2018-12-01T15:02:52.623Z,100357.41
2018-12-01T15:05:20.350Z,100356.66
2018-12-01T15:07:48.931Z,100353.41
2018-12-01T15:10:21.120Z,100354.39
2018-12-01T15:12:48.921Z,100342.37
2018-12-01T15:15:20.415Z,100344.56
2018-12-01T15:17:48.224Z,100348.06
2018-12-01T15:20:17.395Z,100346.72
2018-12-01T15:22:46.903Z,100342.39
2018-12-01T15:25:20.279Z,100345.79
2018-12-01T15:27:48.028Z,100347.97
2018-12-01T15:30:19.276Z,100355.69
2018-12-01T15:32:50.499Z,100350.77
2018-12-01T15:35:18.252Z,100351.73
2018-12-01T15:37:45.950Z,100347.05
2018-12-01T15:40:15.566Z,100349.48
2018-12-01T15:42:43.319Z,100349.31
2018-12-01T15:45:15.793Z,100354.06
2018-12-01T15:47:43.552Z,100347.72
2018-12-01T15:50:17.219Z,100346.20
2018-12-01T15:52:47.939Z,100349.52
2018-12-01T15:55:15.627Z,100350.15
2018-12-01T15:57:43.314Z,100354.14
2018-12-01T16:00:19.593Z,100344.90
2018-12-01T16:02:47.360Z,100343.00
2018-12-01T16:05:16.482Z,100343.01
2018-12-01T16:07:44.471Z,100340.98
2018-12-01T16:10:15.798Z,100337.80
2018-12-01T16:12:49.461Z,100343.34
2018-12-01T16:15:20.594Z,100334.54
2018-12-01T16:17:48.355Z,100326.00
2018-12-01T16:20:16.171Z,100329.69
2018-12-01T16:22:43.893Z,100326.14
2018-12-01T16:25:14.225Z,100328.27
2018-12-01T16:27:43.359Z,100320.83
2018-12-01T16:30:15.480Z,100326.44
2018-12-01T16:32:43.235Z,100318.27
2018-12-01T16:35:10.938Z,100316.54
2018-12-01T16:37:38.664Z,100315.84
2018-12-01T16:40:12.456Z,100308.90
2018-12-01T16:42:40.247Z,100305.84
2018-12-01T16:45:10.938Z,100304.19
2018-12-01T16:47:38.715Z,100298.91
2018-12-01T16:50:11.695Z,100302.46
2018-12-01T16:52:40.235Z,100295.95
2018-12-01T16:55:11.418Z,100285.30
2018-12-01T16:57:39.142Z,100282.88
2018-12-01T17:00:21.680Z,100274.61
2018-12-01T17:02:59.309Z,100270.52
2018-12-01T17:05:31.503Z,100272.61
2018-12-01T17:07:59.213Z,100270.13
2018-12-01T17:10:26.846Z,100258.57
2018-12-01T17:12:56.066Z,100263.25
2018-12-01T17:15:23.855Z,100258.44
2018-12-01T17:17:51.535Z,100256.75
2018-12-01T17:20:19.575Z,100253.89
2018-12-01T17:22:54.161Z,100247.45
2018-12-01T17:25:21.842Z,100251.91
2018-12-01T17:27:50.948Z,100247.98
2018-12-01T17:30:20.339Z,100244.97
2018-12-01T17:32:48.659Z,100248.98
2018-12-01T17:35:21.185Z,100236.33
2018-12-01T17:37:51.524Z,100234.07
2018-12-01T17:40:25.914Z,100238.03
2018-12-01T17:42:55.988Z,100233.31
2018-12-01T17:45:23.686Z,100238.03
2018-12-01T17:47:51.447Z,100226.53
2018-12-01T17:50:19.177Z,100226.73
2018-12-01T17:52:50.383Z,100222.30
2018-12-01T17:55:18.128Z,100225.91
2018-12-01T17:57:50.645Z,100226.84
2018-12-01T18:00:22.167Z,100228.92
2018-12-01T18:02:51.958Z,100227.13
2018-12-01T18:05:23.853Z,100224.57
2018-12-01T18:07:52.063Z,100222.05
2018-12-01T18:10:19.602Z,100224.34
2018-12-01T18:12:47.254Z,100223.13
2018-12-01T18:15:16.752Z,100226.16
2018-12-01T18:17:44.546Z,100236.05
2018-12-01T18:20:17.584Z,100240.05
2018-12-01T18:22:55.539Z,100237.42
2018-12-01T18:25:23.255Z,100239.38
2018-12-01T18:27:54.428Z,100240.68
2018-12-01T18:30:25.523Z,100236.50
2018-12-01T18:32:54.367Z,100239.52
2018-12-01T18:35:22.042Z,100237.42
2018-12-01T18:37:49.779Z,100238.55
2018-12-01T18:40:19.627Z,100237.19
2018-12-01T18:42:47.295Z,100236.66
2018-12-01T18:45:16.675Z,100240.45
2018-12-01T18:47:44.453Z,100232.43
2018-12-01T18:50:16.443Z,100217.12
2018-12-01T18:53:16.232Z,100211.14
2018-12-01T18:55:48.296Z,100206.37
2018-12-01T18:58:16.056Z,100204.66
2018-12-01T19:00:52.356Z,100200.93
2018-12-01T19:03:22.311Z,100198.98
2018-12-01T19:05:50.019Z,100204.66
2018-12-01T19:08:17.747Z,100201.61
2018-12-01T19:10:45.435Z,100194.73
2018-12-01T19:13:13.179Z,100184.67
2018-12-01T19:15:40.920Z,100194.73
2018-12-01T19:18:08.811Z,100195.33
2018-12-01T19:20:37.165Z,100187.63
2018-12-01T19:23:10.444Z,100189.53
2018-12-01T19:25:45.304Z,100180.83
2018-12-01T19:28:16.611Z,100172.27
2018-12-01T19:30:47.964Z,100164.48
2018-12-01T19:33:22.794Z,100156.79
2018-12-01T19:35:54.887Z,100145.27
2018-12-01T19:38:28.056Z,100151.55
2018-12-01T19:41:01.467Z,100155.19
2018-12-01T19:43:32.570Z,100151.78
2018-12-01T19:46:03.420Z,100149.65
2018-12-01T19:48:34.244Z,100142.78
2018-12-01T19:51:05.411Z,100135.30
2018-12-01T19:53:37.873Z,100128.93
2018-12-01T19:56:08.479Z,100131.50
2018-12-01T19:58:40.158Z,100119.48
2018-12-01T20:01:11.458Z,100109.90
2018-12-01T20:03:43.307Z,100116.56
2018-12-01T20:06:15.121Z,100105.37
2018-12-01T20:08:44.420Z,100107.27
2018-12-01T20:11:12.634Z,100101.44
2018-12-01T20:13:46.022Z,100106.34
2018-12-01T20:16:38.842Z,100106.34
2018-12-01T20:19:07.674Z,100107.95
2018-12-01T20:21:36.519Z,100108.53
2018-12-01T20:24:07.534Z,100093.20
2018-12-01T20:26:35.863Z,100084.66
2018-12-01T20:29:03.891Z,100082.56
2018-12-01T20:31:31.799Z,100078.71
2018-12-01T20:34:01.324Z,100083.20
2018-12-01T20:36:37.086Z,100074.00
2018-12-01T20:39:30.535Z,100074.69
2018-12-01T20:41:58.895Z,100072.11
2018-12-01T20:44:27.955Z,100065.39
2018-12-01T20:46:57.267Z,100064.72
2018-12-01T20:49:29.122Z,100056.98
2018-12-01T20:51:58.057Z,100056.45
2018-12-01T20:54:37.376Z,100046.93
2018-12-01T20:57:20.813Z,100043.67
2018-12-01T20:59:48.663Z,100038.17
2018-12-01T21:02:17.246Z,100036.05
2018-12-01T21:04:44.995Z,100040.95
2018-12-01T21:07:12.663Z,100039.00
2018-12-01T21:09:40.796Z,100035.27
2018-12-01T21:12:10.732Z,100032.11
2018-12-01T21:14:39.629Z,100025.00
2018-12-01T21:17:08.822Z,100029.00
2018-12-01T21:19:38.165Z,100030.89
2018-12-01T21:22:08.923Z,100027.93
2018-12-01T21:24:37.546Z,100029.77
2018-12-01T21:27:05.495Z,100025.98
2018-12-01T21:29:33.474Z,100015.39
2018-12-01T21:32:04.755Z,100015.33
2018-12-01T21:34:32.596Z,100020.00
2018-12-01T21:37:00.321Z,100009.12
2018-12-01T21:39:28.783Z,100009.94
2018-12-01T21:41:57.755Z,100016.52
2018-12-01T21:44:25.467Z,100009.79
2018-12-01T21:46:54.068Z,100011.45
2018-12-01T21:49:21.803Z,100006.83
2018-12-01T21:51:49.593Z,100002.16
2018-12-01T21:54:17.355Z,99994.52
2018-12-01T21:56:45.050Z,99994.34
2018-12-01T21:59:12.799Z,99978.24
2018-12-01T22:01:40.544Z,99980.19
2018-12-01T22:04:09.157Z,99975.81
2018-12-01T22:06:36.848Z,99979.61
2018-12-01T22:09:06.953Z,99966.95
2018-12-01T22:11:34.732Z,99965.22
2018-12-01T22:14:02.436Z,99960.31
2018-12-01T22:16:30.704Z,99951.07
2018-12-01T22:18:58.519Z,99961.52
2018-12-01T22:21:26.182Z,99954.63
2018-12-01T22:23:54.044Z,99958.31
2018-12-01T22:26:21.771Z,99953.77
2018-12-01T22:28:49.614Z,99949.02
2018-12-01T22:31:17.274Z,99948.86
2018-12-01T22:33:44.993Z,99948.33
2018-12-01T22:36:12.758Z,99953.29
2018-12-01T22:38:40.471Z,99947.98
2018-12-01T22:41:08.207Z,99950.00
2018-12-01T22:43:35.961Z,99941.39
2018-12-01T22:46:07.231Z,99936.81
2018-12-01T22:48:34.979Z,99938.64
2018-12-01T22:51:02.719Z,99929.39
2018-12-01T22:53:30.432Z,99928.20
2018-12-01T22:55:58.240Z,99933.70
2018-12-01T22:58:25.954Z,99922.88
2018-12-01T23:00:56.301Z,99925.65
2018-12-01T23:03:25.835Z,99920.16
2018-12-01T23:05:53.580Z,99910.74
2018-12-01T23:08:23.141Z,99914.12
2018-12-01T23:10:50.887Z,99909.79
2018-12-01T23:13:18.839Z,99909.66
2018-12-01T23:15:46.606Z,99904.83
2018-12-01T23:18:16.617Z,99903.09
2018-12-01T23:20:46.096Z,99899.62
2018-12-01T23:23:16.651Z,99898.62
2018-12-01T23:25:44.763Z,99896.77
2018-12-01T23:28:12.548Z,99902.68
2018-12-01T23:30:44.754Z,99904.83
2018-12-01T23:33:16.035Z,99899.50
2018-12-01T23:35:43.789Z,99886.83
2018-12-01T23:38:11.532Z,99886.43
2018-12-01T23:40:40.205Z,99888.58
2018-12-01T23:43:08.319Z,99883.38
2018-12-01T23:45:37.873Z,99884.03
2018-12-01T23:48:05.886Z,99874.50
2018-12-01T23:50:33.740Z,99868.92
2018-12-01T23:53:06.748Z,99862.95
2018-12-01T23:55:34.502Z,99863.19
2018-12-01T23:58:02.339Z,99852.30
